createdAt,value
2019-04-01T00:00:39.399Z,52.30
2019-04-01T00:03:10.136Z,52.30
2019-04-01T00:05:39.446Z,52.50
2019-04-01T00:08:08.749Z,52.70
2019-04-01T00:10:38.998Z,52.80
2019-04-01T00:13:09.875Z,52.70
2019-04-01T00:15:39.101Z,52.80
2019-04-01T00:18:08.285Z,52.80
2019-04-01T00:20:37.516Z,53.00
2019-04-01T00:23:06.845Z,53.10
2019-04-01T00:25:36.356Z,53.10
2019-04-01T00:28:06.364Z,53.20
2019-04-01T00:30:35.619Z,53.20
2019-04-01T00:33:04.942Z,53.30
2019-04-01T00:35:34.168Z,53.30
2019-04-01T00:38:04.520Z,53.20
2019-04-01T00:40:33.754Z,53.90
2019-04-01T00:43:14.325Z,53.30
2019-04-01T00:45:48.126Z,53.40
2019-04-01T00:48:17.418Z,53.50
2019-04-01T00:50:46.713Z,53.50
2019-04-01T00:53:18.012Z,53.80
2019-04-01T00:55:46.896Z,53.90
2019-04-01T00:58:16.274Z,54.00
2019-04-01T01:00:45.702Z,53.90
2019-04-01T01:03:15.024Z,54.00
2019-04-01T01:05:44.335Z,53.90
2019-04-01T01:08:14.694Z,54.00
2019-04-01T01:10:44.012Z,54.10
2019-04-01T01:13:13.242Z,54.10
2019-04-01T01:15:42.479Z,54.20
2019-04-01T01:18:11.817Z,54.20
2019-04-01T01:20:41.095Z,54.30
2019-04-01T01:23:10.386Z,54.30
2019-04-01T01:25:39.682Z,54.30
2019-04-01T01:28:09.030Z,54.30
2019-04-01T01:30:39.469Z,54.30
2019-04-01T01:33:08.839Z,54.30
2019-04-01T01:35:38.092Z,54.30
2019-04-01T01:38:07.348Z,54.40
2019-04-01T01:40:36.642Z,54.40
2019-04-01T01:43:07.823Z,54.60
2019-04-01T01:45:37.048Z,54.50
2019-04-01T01:48:06.348Z,54.40
2019-04-01T01:50:35.661Z,54.40
2019-04-01T01:53:04.856Z,54.30
2019-04-01T01:55:34.204Z,54.50
2019-04-01T01:58:03.430Z,54.60
2019-04-01T02:00:33.756Z,55.30
2019-04-01T02:03:03.081Z,55.90
2019-04-01T02:05:32.305Z,56.20
2019-04-01T02:08:01.551Z,56.50
2019-04-01T02:10:30.852Z,56.50
2019-04-01T02:13:00.081Z,56.40
2019-04-01T02:15:29.405Z,56.30
2019-04-01T02:17:58.849Z,56.10
2019-04-01T02:20:28.140Z,56.50
2019-04-01T02:22:57.437Z,57.00
2019-04-01T02:25:26.687Z,57.40
2019-04-01T02:27:55.917Z,57.50
2019-04-01T02:30:26.279Z,57.60
2019-04-01T02:32:55.620Z,57.40
2019-04-01T02:35:25.757Z,57.80
2019-04-01T02:37:54.994Z,56.80
2019-04-01T02:40:24.233Z,56.70
2019-04-01T02:42:53.450Z,56.40
2019-04-01T02:45:24.745Z,56.20
2019-04-01T02:47:53.917Z,56.00
2019-04-01T02:50:23.158Z,55.90
2019-04-01T02:52:52.381Z,55.60
2019-04-01T02:55:21.658Z,55.50
2019-04-01T02:57:51.008Z,55.60
2019-04-01T03:00:20.889Z,55.60
2019-04-01T03:02:50.295Z,55.80
2019-04-01T03:05:19.566Z,56.10
2019-04-01T03:07:48.989Z,56.30
2019-04-01T03:10:18.231Z,56.40
2019-04-01T03:12:47.475Z,56.50
2019-04-01T03:15:16.750Z,56.70
2019-04-01T03:17:46.002Z,56.90
2019-04-01T03:20:15.308Z,57.10
2019-04-01T03:22:44.583Z,57.10
2019-04-01T03:25:13.815Z,56.90
2019-04-01T03:27:43.063Z,56.80
2019-04-01T03:30:12.374Z,56.90
2019-04-01T03:32:45.304Z,56.80
2019-04-01T03:35:12.478Z,56.90
2019-04-01T03:37:41.712Z,57.80
2019-04-01T03:40:12.188Z,56.70
2019-04-01T03:42:42.561Z,57.10
2019-04-01T03:45:11.776Z,57.20
2019-04-01T03:47:42.126Z,57.20
2019-04-01T03:50:11.433Z,57.20
2019-04-01T03:52:40.743Z,57.20
2019-04-01T03:55:09.987Z,57.30
2019-04-01T03:57:39.241Z,57.30
2019-04-01T04:00:08.549Z,57.30
2019-04-01T04:02:37.943Z,57.30
2019-04-01T04:05:07.289Z,57.50
2019-04-01T04:07:36.574Z,57.30
2019-04-01T04:10:07.012Z,57.20
2019-04-01T04:12:35.802Z,57.20
2019-04-01T04:15:06.236Z,57.30
2019-04-01T04:17:35.517Z,57.00
2019-04-01T04:20:06.515Z,56.90
2019-04-01T04:22:35.819Z,57.00
2019-04-01T04:25:06.531Z,57.10
2019-04-01T04:27:35.846Z,57.30
2019-04-01T04:30:06.931Z,57.30
2019-04-01T04:32:36.943Z,57.30
2019-04-01T04:35:06.508Z,57.60
2019-04-01T04:37:37.032Z,57.60
2019-04-01T04:40:06.726Z,57.60
2019-04-01T04:42:36.014Z,57.70
2019-04-01T04:45:06.377Z,57.80
2019-04-01T04:47:35.636Z,58.00
2019-04-01T04:50:06.273Z,58.40
2019-04-01T04:52:34.808Z,58.50
2019-04-01T04:55:04.963Z,58.70
2019-04-01T04:57:34.327Z,58.70
2019-04-01T05:00:05.318Z,58.40
2019-04-01T05:02:34.766Z,58.20
2019-04-01T05:05:05.681Z,58.20
2019-04-01T05:07:34.980Z,58.30
2019-04-01T05:10:06.595Z,58.40
2019-04-01T05:12:35.875Z,58.50
2019-04-01T05:15:06.682Z,58.60
2019-04-01T05:17:36.039Z,58.50
2019-04-01T05:20:05.465Z,58.40
2019-04-01T05:22:36.036Z,58.40
2019-04-01T05:25:05.535Z,58.40
2019-04-01T05:27:35.094Z,58.30
2019-04-01T05:30:05.488Z,58.30
2019-04-01T05:32:37.373Z,58.50
2019-04-01T05:35:06.779Z,58.60
2019-04-01T05:37:37.068Z,58.70
2019-04-01T05:40:06.673Z,58.90
2019-04-01T05:42:36.501Z,58.70
2019-04-01T05:45:07.095Z,58.60
2019-04-01T05:47:37.963Z,58.60
2019-04-01T05:50:07.818Z,58.50
2019-04-01T05:52:37.096Z,58.60
2019-04-01T05:55:08.994Z,58.60
2019-04-01T05:57:37.260Z,58.60
2019-04-01T06:00:06.691Z,58.60
2019-04-01T06:02:35.937Z,58.90
2019-04-01T06:05:06.302Z,58.90
2019-04-01T06:07:36.045Z,59.00
2019-04-01T06:10:09.358Z,59.20
2019-04-01T06:12:39.729Z,59.60
2019-04-01T06:15:08.984Z,59.80
2019-04-01T06:17:38.275Z,60.10
2019-04-01T06:20:07.539Z,61.10
2019-04-01T06:22:36.898Z,61.60
2019-04-01T06:25:07.165Z,61.30
2019-04-01T06:27:36.462Z,61.30
2019-04-01T06:30:06.727Z,61.20
2019-04-01T06:32:36.094Z,60.90
2019-04-01T06:35:06.618Z,60.60
2019-04-01T06:37:37.040Z,60.60
2019-04-01T06:40:06.466Z,61.40
2019-04-01T06:42:35.832Z,60.40
2019-04-01T06:45:08.204Z,60.70
2019-04-01T06:47:37.582Z,60.60
2019-04-01T06:53:06.651Z,71.10
2019-04-01T06:55:35.310Z,62.60
2019-04-01T06:58:04.529Z,58.60
2019-04-01T07:00:33.823Z,57.70
2019-04-01T07:03:03.046Z,57.50
2019-04-01T07:05:32.261Z,57.50
2019-04-01T07:08:01.499Z,57.10
2019-04-01T07:10:30.696Z,57.80
2019-04-01T07:13:01.031Z,56.30
2019-04-01T07:15:30.291Z,55.50
2019-04-01T07:17:59.455Z,55.50
2019-04-01T07:20:28.774Z,55.30
2019-04-01T07:22:58.187Z,55.10
2019-04-01T07:25:27.443Z,55.20
2019-04-01T07:27:56.917Z,54.60
2019-04-01T07:30:26.591Z,54.30
2019-04-01T07:32:55.877Z,54.40
2019-04-01T07:35:25.162Z,54.70
2019-04-01T07:37:54.380Z,54.80
2019-04-01T07:40:23.674Z,55.20
2019-04-01T07:42:53.134Z,55.10
2019-04-01T07:45:22.438Z,55.00
2019-04-01T07:47:52.801Z,55.20
2019-04-01T07:50:22.198Z,55.00
2019-04-01T07:52:55.182Z,54.40
2019-04-01T07:55:23.100Z,54.40
2019-04-01T07:57:52.403Z,54.50
2019-04-01T08:00:22.929Z,54.30
2019-04-01T08:02:52.171Z,54.10
2019-04-01T08:05:21.474Z,53.50
2019-04-01T08:07:51.184Z,53.10
2019-04-01T08:10:20.400Z,52.20
2019-04-01T08:12:49.736Z,51.90
2019-04-01T08:15:21.337Z,52.10
2019-04-01T08:17:49.962Z,52.20
2019-04-01T08:20:19.383Z,52.30
2019-04-01T08:22:48.604Z,51.00
2019-04-01T08:25:17.784Z,50.60
2019-04-01T08:27:47.114Z,49.60
2019-04-01T08:30:16.355Z,49.00
2019-04-01T08:32:45.696Z,48.40
2019-04-01T08:35:14.927Z,48.20
2019-04-01T08:37:44.257Z,48.60
2019-04-01T08:40:13.517Z,48.30
2019-04-01T08:42:42.902Z,47.70
2019-04-01T08:45:12.154Z,47.60
2019-04-01T08:47:41.435Z,47.40
2019-04-01T08:50:11.210Z,46.40
2019-04-01T08:52:40.470Z,46.00
2019-04-01T08:55:09.732Z,45.70
2019-04-01T08:57:39.518Z,46.20
2019-04-01T09:00:09.427Z,46.00
2019-04-01T09:02:40.599Z,46.50
2019-04-01T09:05:10.014Z,47.10
2019-04-01T09:07:39.349Z,45.90
2019-04-01T09:10:08.541Z,45.30
2019-04-01T09:12:37.824Z,45.90
2019-04-01T09:15:08.189Z,45.20
2019-04-01T09:17:40.240Z,45.10
2019-04-01T09:20:08.487Z,45.20
2019-04-01T09:22:38.758Z,44.70
2019-04-01T09:25:08.055Z,45.20
2019-04-01T09:27:37.351Z,44.90
2019-04-01T09:30:07.113Z,45.60
2019-04-01T09:32:36.301Z,44.00
2019-04-01T09:35:06.635Z,44.50
2019-04-01T09:37:37.023Z,44.30
2019-04-01T09:40:08.348Z,44.00
2019-04-01T09:42:37.654Z,44.20
2019-04-01T09:45:07.560Z,43.60
2019-04-01T09:47:36.789Z,43.10
2019-04-01T09:50:05.959Z,43.20
2019-04-01T09:52:35.256Z,43.40
2019-04-01T09:55:06.315Z,42.90
2019-04-01T09:57:36.853Z,43.30
2019-04-01T10:00:10.248Z,43.80
2019-04-01T10:02:39.600Z,43.50
2019-04-01T10:05:09.537Z,43.70
2019-04-01T10:07:39.038Z,43.10
2019-04-01T10:10:08.767Z,43.20
2019-04-01T10:12:38.139Z,42.80
2019-04-01T10:15:07.900Z,43.50
2019-04-01T10:17:37.260Z,43.60
2019-04-01T10:20:09.319Z,42.70
2019-04-01T10:22:38.778Z,42.40
2019-04-01T10:25:08.058Z,42.50
2019-04-01T10:27:37.766Z,42.40
2019-04-01T10:30:08.655Z,43.40
2019-04-01T10:32:37.961Z,43.30
2019-04-01T10:35:07.439Z,42.10
2019-04-01T10:37:36.917Z,42.30
2019-04-01T10:40:07.131Z,42.00
2019-04-01T10:42:36.567Z,41.70
2019-04-01T10:45:09.066Z,42.30
2019-04-01T10:47:38.583Z,40.80
2019-04-01T10:50:08.060Z,41.70
2019-04-01T10:52:37.664Z,42.70
2019-04-01T10:55:08.529Z,41.30
2019-04-01T10:57:38.168Z,41.60
2019-04-01T11:00:08.696Z,40.90
2019-04-01T11:02:38.429Z,39.80
2019-04-01T11:05:07.983Z,39.70
2019-04-01T11:07:37.541Z,40.10
2019-04-01T11:10:11.100Z,40.70
2019-04-01T11:12:38.433Z,41.60
2019-04-01T11:15:08.313Z,41.80
2019-04-01T11:17:37.720Z,42.20
2019-04-01T11:20:08.073Z,44.00
2019-04-01T11:22:37.756Z,44.20
2019-04-01T11:25:07.402Z,44.10
2019-04-01T11:27:36.812Z,44.20
2019-04-01T11:30:08.022Z,44.80
2019-04-01T11:32:38.118Z,44.80
2019-04-01T11:35:07.710Z,44.30
2019-04-01T11:37:37.372Z,43.50
2019-04-01T11:40:11.050Z,43.40
2019-04-01T11:42:40.489Z,43.90
2019-04-01T11:45:09.119Z,45.00
2019-04-01T11:47:38.615Z,42.10
2019-04-01T11:50:08.351Z,44.00
2019-04-01T11:52:38.182Z,44.80
2019-04-01T11:55:06.713Z,45.40
2019-04-01T11:57:33.739Z,44.30
2019-04-01T12:00:01.256Z,43.70
2019-04-01T12:02:29.077Z,44.10
2019-04-01T12:04:56.437Z,43.70
2019-04-01T12:07:23.488Z,43.70
2019-04-01T12:09:52.246Z,42.00
2019-04-01T12:12:24.014Z,42.10
2019-04-01T12:14:48.381Z,43.50
2019-04-01T12:17:15.256Z,41.70
2019-04-01T12:19:42.294Z,42.70
2019-04-01T12:22:08.995Z,43.60
2019-04-01T12:24:36.804Z,43.30
2019-04-01T12:27:03.839Z,42.50
2019-04-01T12:29:31.834Z,41.80
2019-04-01T12:31:59.768Z,44.30
2019-04-01T12:34:26.466Z,40.60
2019-04-01T12:36:53.168Z,40.00
2019-04-01T12:39:19.642Z,40.70
2019-04-01T12:41:47.379Z,39.20
2019-04-01T12:44:14.053Z,38.70
2019-04-01T12:46:40.618Z,38.90
2019-04-01T12:49:08.647Z,39.30
2019-04-01T12:51:35.232Z,40.20
2019-04-01T12:54:01.976Z,39.40
2019-04-01T12:56:28.703Z,39.70
2019-04-01T12:58:55.331Z,41.00
2019-04-01T13:01:22.163Z,40.40
2019-04-01T13:03:49.890Z,41.50
2019-04-01T13:06:16.410Z,40.50
2019-04-01T13:08:43.042Z,39.70
2019-04-01T13:11:09.952Z,40.20
2019-04-01T13:13:36.411Z,40.00
2019-04-01T13:16:03.005Z,39.10
2019-04-01T13:18:29.601Z,39.50
2019-04-01T13:21:03.655Z,39.00
2019-04-01T13:23:30.383Z,39.10
2019-04-01T13:25:57.177Z,39.90
2019-04-01T13:28:23.788Z,39.70
2019-04-01T13:30:51.405Z,40.20
2019-04-01T13:33:18.300Z,39.90
2019-04-01T13:35:44.951Z,40.50
2019-04-01T13:38:11.612Z,40.10
2019-04-01T13:40:38.840Z,40.40
2019-04-01T13:43:05.486Z,40.70
2019-04-01T13:45:32.070Z,39.70
2019-04-01T13:47:58.683Z,40.50
2019-04-01T13:50:25.314Z,38.60
2019-04-01T13:52:52.866Z,37.40
2019-04-01T13:55:19.281Z,36.90
2019-04-01T13:57:45.761Z,37.20
2019-04-01T14:00:14.191Z,37.70
2019-04-01T14:02:40.706Z,37.40
2019-04-01T14:05:08.162Z,37.70
2019-04-01T14:07:34.647Z,37.70
2019-04-01T14:10:01.150Z,38.10
2019-04-01T14:12:27.840Z,38.30
2019-04-01T14:14:54.694Z,38.40
2019-04-01T14:17:21.184Z,38.80
2019-04-01T14:19:47.695Z,39.80
2019-04-01T14:22:14.165Z,40.10
2019-04-01T14:24:42.598Z,39.50
2019-04-01T14:27:09.341Z,39.10
2019-04-01T14:29:36.814Z,40.00
2019-04-01T14:32:04.417Z,39.60
2019-04-01T14:34:31.028Z,39.10
2019-04-01T14:36:57.813Z,39.30
2019-04-01T14:39:24.289Z,39.40
2019-04-01T14:41:50.773Z,39.80
2019-04-01T14:44:17.273Z,39.60
2019-04-01T14:46:43.839Z,39.60
2019-04-01T14:49:10.265Z,39.60
2019-04-01T14:51:36.824Z,40.10
2019-04-01T14:54:03.221Z,40.70
2019-04-01T14:56:29.654Z,40.70
2019-04-01T14:58:57.623Z,40.20
2019-04-01T15:01:25.082Z,39.80
2019-04-01T15:03:51.712Z,39.70
2019-04-01T15:06:19.060Z,40.50
2019-04-01T15:08:45.788Z,40.60
2019-04-01T15:11:12.672Z,39.90
2019-04-01T15:13:39.546Z,39.80
2019-04-01T15:16:07.065Z,38.70
2019-04-01T15:18:34.454Z,38.80
2019-04-01T15:21:03.047Z,38.10
2019-04-01T15:23:29.637Z,38.60
2019-04-01T15:25:56.124Z,38.80
2019-04-01T15:28:22.599Z,39.00
2019-04-01T15:30:49.112Z,39.30
2019-04-01T15:33:15.564Z,40.00
2019-04-01T15:35:42.259Z,39.70
2019-04-01T15:38:08.767Z,39.70
2019-04-01T15:40:35.433Z,39.50
2019-04-01T15:43:02.788Z,39.70
2019-04-01T15:45:31.323Z,39.40
2019-04-01T15:47:57.684Z,39.60
2019-04-01T15:50:28.805Z,39.70
2019-04-01T15:52:52.624Z,39.90
2019-04-01T15:55:19.125Z,40.00
2019-04-01T15:57:45.772Z,40.10
2019-04-01T16:00:12.226Z,40.10
2019-04-01T16:02:38.860Z,40.10
2019-04-01T16:05:07.199Z,39.80
2019-04-01T16:07:34.018Z,39.70
2019-04-01T16:10:00.447Z,39.70
2019-04-01T16:12:27.651Z,39.70
2019-04-01T16:14:54.127Z,40.30
2019-04-01T16:17:20.551Z,40.70
2019-04-01T16:19:47.402Z,41.00
2019-04-01T16:22:13.942Z,41.70
2019-04-01T16:24:40.505Z,41.90
2019-04-01T16:27:08.943Z,41.90
2019-04-01T16:29:35.502Z,42.00
2019-04-01T16:32:01.987Z,42.10
2019-04-01T16:34:28.462Z,42.00
2019-04-01T16:36:55.031Z,42.10
2019-04-01T16:39:21.568Z,42.20
2019-04-01T16:41:50.506Z,42.40
2019-04-01T16:44:16.439Z,42.20
2019-04-01T16:46:43.006Z,42.20
2019-04-01T16:49:11.610Z,42.10
2019-04-01T16:51:41.173Z,42.10
2019-04-01T16:54:06.758Z,42.30
2019-04-01T16:56:33.368Z,42.40
2019-04-01T16:59:00.692Z,42.40
2019-04-01T17:01:28.498Z,42.60
2019-04-01T17:03:55.104Z,42.70
2019-04-01T17:06:21.790Z,42.70
2019-04-01T17:08:49.758Z,42.80
2019-04-01T17:11:17.457Z,42.70
2019-04-01T17:13:44.219Z,42.60
2019-04-01T17:16:10.907Z,42.70
2019-04-01T17:18:37.595Z,42.90
2019-04-01T17:21:05.038Z,43.00
2019-04-01T17:23:31.834Z,43.20
2019-04-01T17:25:58.297Z,43.20
2019-04-01T17:28:24.910Z,43.20
2019-04-01T17:30:52.610Z,43.20
2019-04-01T17:33:20.138Z,42.90
2019-04-01T17:35:47.718Z,42.90
2019-04-01T17:38:14.291Z,42.90
2019-04-01T17:40:41.349Z,42.60
2019-04-01T17:43:09.390Z,42.40
2019-04-01T17:45:36.650Z,42.50
2019-04-01T17:48:04.605Z,42.40
2019-04-01T17:50:31.739Z,42.20
2019-04-01T17:52:58.233Z,42.10
2019-04-01T17:55:25.427Z,42.10
2019-04-01T17:57:52.148Z,41.90
2019-04-01T18:00:23.267Z,41.90
2019-04-01T18:02:49.895Z,41.90
2019-04-01T18:05:16.534Z,42.00
2019-04-01T18:07:43.258Z,41.90
2019-04-01T18:10:10.745Z,42.20
2019-04-01T18:12:38.441Z,42.40
2019-04-01T18:15:05.092Z,42.40
2019-04-01T18:17:32.881Z,42.20
2019-04-01T18:19:59.685Z,42.20
2019-04-01T18:22:26.230Z,42.30
2019-04-01T18:24:52.960Z,42.70
2019-04-01T18:27:19.437Z,43.10
2019-04-01T18:29:46.042Z,43.30
2019-04-01T18:32:12.753Z,43.10
2019-04-01T18:34:39.383Z,43.40
2019-04-01T18:37:06.068Z,43.20
2019-04-01T18:39:32.658Z,43.20
2019-04-01T18:41:59.310Z,44.00
2019-04-01T18:44:26.114Z,43.10
2019-04-01T18:46:53.031Z,43.00
2019-04-01T18:49:19.722Z,43.00
2019-04-01T18:51:46.600Z,42.90
2019-04-01T18:54:14.731Z,43.00
2019-04-01T18:56:41.463Z,43.20
2019-04-01T18:59:08.143Z,43.40
2019-04-01T19:01:34.933Z,43.60
2019-04-01T19:04:01.444Z,43.80
2019-04-01T19:06:28.063Z,44.00
2019-04-01T19:09:08.420Z,44.00
2019-04-01T19:11:24.316Z,44.10
2019-04-01T19:13:50.856Z,44.30
2019-04-01T19:16:17.768Z,44.40
2019-04-01T19:18:44.265Z,44.50
2019-04-01T19:21:10.853Z,44.30
2019-04-01T19:23:38.708Z,44.10
2019-04-01T19:26:05.568Z,44.40
2019-04-01T19:28:32.269Z,45.30
2019-04-01T19:30:59.045Z,45.60
2019-04-01T19:33:25.604Z,45.30
2019-04-01T19:35:52.216Z,45.80
2019-04-01T19:38:21.352Z,45.90
2019-04-01T19:40:47.992Z,46.10
2019-04-01T19:43:16.229Z,46.20
2019-04-01T19:45:43.356Z,46.40
2019-04-01T19:48:10.146Z,46.70
2019-04-01T19:50:38.258Z,46.80
2019-04-01T19:53:04.925Z,46.80
2019-04-01T19:55:34.404Z,46.70
2019-04-01T19:58:01.204Z,46.90
2019-04-01T20:00:30.481Z,47.10
2019-04-01T20:02:56.895Z,47.40
2019-04-01T20:05:23.496Z,47.70
2019-04-01T20:07:50.292Z,47.60
2019-04-01T20:10:17.273Z,47.80
2019-04-01T20:12:45.707Z,47.90
2019-04-01T20:15:12.569Z,47.90
2019-04-01T20:17:39.585Z,48.00
2019-04-01T20:20:06.666Z,48.00
2019-04-01T20:22:35.043Z,48.10
2019-04-01T20:25:01.642Z,48.60
2019-04-01T20:27:28.368Z,49.00
2019-04-01T20:29:54.991Z,49.20
2019-04-01T20:32:21.418Z,49.70
2019-04-01T20:34:56.905Z,50.10
2019-04-01T20:37:16.107Z,50.30
2019-04-01T20:39:42.647Z,50.50
2019-04-01T20:42:09.336Z,50.50
2019-04-01T20:44:35.796Z,50.60
2019-04-01T20:47:02.350Z,50.70
2019-04-01T20:49:29.365Z,50.90
2019-04-01T20:51:56.803Z,50.90
2019-04-01T20:54:23.359Z,51.00
2019-04-01T20:56:49.858Z,50.80
2019-04-01T20:59:17.750Z,50.80
2019-04-01T21:01:44.222Z,51.20
2019-04-01T21:04:11.639Z,51.20
2019-04-01T21:06:38.172Z,51.30
2019-04-01T21:09:06.788Z,51.50
2019-04-01T21:11:33.325Z,51.70
2019-04-01T21:14:03.271Z,51.60
2019-04-01T21:16:31.010Z,51.80
2019-04-01T21:18:57.582Z,51.80
2019-04-01T21:21:25.015Z,51.90
2019-04-01T21:23:51.626Z,52.00
2019-04-01T21:26:18.080Z,51.90
2019-04-01T21:28:44.684Z,52.70
2019-04-01T21:31:11.366Z,52.10
2019-04-01T21:33:37.840Z,52.10
2019-04-01T21:36:04.526Z,52.30
2019-04-01T21:38:30.950Z,52.20
2019-04-01T21:40:57.457Z,52.40
2019-04-01T21:43:25.065Z,53.50
2019-04-01T21:45:51.644Z,52.80
2019-04-01T21:48:18.291Z,53.00
2019-04-01T21:50:44.815Z,53.10
2019-04-01T21:53:11.258Z,53.20
2019-04-01T21:55:37.696Z,53.10
2019-04-01T21:58:04.193Z,53.50
2019-04-01T22:00:38.772Z,53.70
2019-04-01T22:03:07.557Z,53.60
2019-04-01T22:05:34.409Z,53.70
2019-04-01T22:08:00.916Z,53.90
2019-04-01T22:10:28.014Z,53.90
2019-04-01T22:12:56.229Z,54.00
2019-04-01T22:15:24.050Z,54.00
2019-04-01T22:17:50.553Z,54.30
2019-04-01T22:20:16.965Z,54.50
2019-04-01T22:22:43.410Z,54.40
2019-04-01T22:25:10.037Z,54.40
2019-04-01T22:27:37.628Z,54.20
2019-04-01T22:30:05.719Z,54.30
2019-04-01T22:32:32.312Z,54.60
2019-04-01T22:34:58.965Z,54.90
2019-04-01T22:37:27.522Z,55.10
2019-04-01T22:39:53.932Z,55.00
2019-04-01T22:42:20.520Z,55.10
2019-04-01T22:44:47.095Z,55.20
2019-04-01T22:47:13.712Z,55.20
2019-04-01T22:49:41.146Z,55.40
2019-04-01T22:52:10.510Z,55.50
2019-04-01T22:54:37.264Z,55.60
2019-04-01T22:57:03.853Z,55.60
2019-04-01T22:59:30.279Z,55.70
2019-04-01T23:01:59.375Z,55.50
2019-04-01T23:04:25.047Z,55.60
2019-04-01T23:06:51.555Z,55.60
2019-04-01T23:09:19.387Z,55.50
2019-04-01T23:11:45.972Z,55.40
2019-04-01T23:14:13.522Z,55.40
2019-04-01T23:16:43.327Z,55.60
2019-04-01T23:19:09.805Z,55.60
2019-04-01T23:21:36.246Z,55.70
2019-04-01T23:24:02.970Z,55.90
2019-04-01T23:26:29.411Z,55.80
2019-04-01T23:28:55.932Z,55.80
2019-04-01T23:31:22.573Z,55.70
2019-04-01T23:33:49.079Z,55.70
2019-04-01T23:36:15.567Z,55.60
2019-04-01T23:38:42.157Z,55.50
2019-04-01T23:41:08.613Z,55.40
2019-04-01T23:43:35.199Z,55.20
2019-04-01T23:46:01.923Z,55.20
2019-04-01T23:48:28.330Z,55.00
2019-04-01T23:50:54.789Z,55.00
2019-04-01T23:53:23.125Z,55.10
2019-04-01T23:55:49.576Z,55.10
2019-04-01T23:58:16.131Z,55.10
